sensor_id;sensor_type;location;lat;lon;timestamp;P1;durP1;ratioP1;P2;durP2;ratioP2
1258;SDS011;619;51.472;6.628;2023-07-31T00:02:02;8.73;;;3.97;;
1258;SDS011;619;51.472;6.628;2023-07-31T00:04:28;6.83;;;3.70;;
1258;SDS011;619;51.472;6.628;2023-07-31T00:06:56;7.40;;;4.00;;
1258;SDS011;619;51.472;6.628;2023-07-31T00:09:21;8.20;;;4.47;;
1258;SDS011;619;51.472;6.628;2023-07-31T00:11:47;7.47;;;4.60;;
1258;SDS011;619;51.472;6.628;2023-07-31T00:14:12;7.20;;;4.30;;
1258;SDS011;619;51.472;6.628;2023-07-31T00:16:40;6.87;;;4.37;;
1258;SDS011;619;51.472;6.628;2023-07-31T00:19:06;9.47;;;5.00;;
1258;SDS011;619;51.472;6.628;2023-07-31T00:21:32;8.60;;;5.00;;
1258;SDS011;619;51.472;6.628;2023-07-31T00:23:59;8.53;;;4.67;;
1258;SDS011;619;51.472;6.628;2023-07-31T00:26:25;8.93;;;4.77;;
1258;SDS011;619;51.472;6.628;2023-07-31T00:28:51;7.80;;;4.53;;
1258;SDS011;619;51.472;6.628;2023-07-31T00:31:16;7.47;;;4.60;;
1258;SDS011;619;51.472;6.628;2023-07-31T00:33:42;9.30;;;4.77;;
1258;SDS011;619;51.472;6.628;2023-07-31T00:36:07;7.17;;;4.43;;
1258;SDS011;619;51.472;6.628;2023-07-31T00:38:33;8.30;;;4.57;;
1258;SDS011;619;51.472;6.628;2023-07-31T00:40:58;9.57;;;4.90;;
1258;SDS011;619;51.472;6.628;2023-07-31T00:43:26;9.07;;;4.43;;
1258;SDS011;619;51.472;6.628;2023-07-31T00:45:52;12.80;;;4.90;;
1258;SDS011;619;51.472;6.628;2023-07-31T00:48:17;10.40;;;4.53;;
1258;SDS011;619;51.472;6.628;2023-07-31T00:50:48;10.10;;;5.30;;
1258;SDS011;619;51.472;6.628;2023-07-31T00:53:16;7.83;;;4.97;;
1258;SDS011;619;51.472;6.628;2023-07-31T00:55:42;10.30;;;5.10;;
1258;SDS011;619;51.472;6.628;2023-07-31T00:58:09;10.47;;;5.23;;
1258;SDS011;619;51.472;6.628;2023-07-31T01:00:39;6.63;;;4.03;;
1258;SDS011;619;51.472;6.628;2023-07-31T01:03:05;9.03;;;5.27;;
1258;SDS011;619;51.472;6.628;2023-07-31T01:05:36;5.40;;;4.23;;
1258;SDS011;619;51.472;6.628;2023-07-31T01:11:02;10.60;;;4.27;;
1258;SDS011;619;51.472;6.628;2023-07-31T01:13:42;7.53;;;4.63;;
1258;SDS011;619;51.472;6.628;2023-07-31T01:16:09;8.47;;;4.77;;
1258;SDS011;619;51.472;6.628;2023-07-31T01:18:34;12.47;;;4.97;;
1258;SDS011;619;51.472;6.628;2023-07-31T01:21:03;9.33;;;4.57;;
1258;SDS011;619;51.472;6.628;2023-07-31T01:23:46;9.77;;;4.80;;
1258;SDS011;619;51.472;6.628;2023-07-31T01:26:40;6.43;;;3.87;;
1258;SDS011;619;51.472;6.628;2023-07-31T01:29:26;11.30;;;3.93;;
1258;SDS011;619;51.472;6.628;2023-07-31T01:32:02;11.00;;;4.60;;
1258;SDS011;619;51.472;6.628;2023-07-31T01:34:29;8.63;;;4.10;;
1258;SDS011;619;51.472;6.628;2023-07-31T01:37:02;6.77;;;3.97;;
1258;SDS011;619;51.472;6.628;2023-07-31T01:39:30;9.13;;;4.00;;
1258;SDS011;619;51.472;6.628;2023-07-31T01:41:56;8.77;;;3.60;;
1258;SDS011;619;51.472;6.628;2023-07-31T01:44:21;7.43;;;4.20;;
1258;SDS011;619;51.472;6.628;2023-07-31T01:46:47;12.57;;;4.33;;
1258;SDS011;619;51.472;6.628;2023-07-31T01:49:15;6.90;;;4.07;;
1258;SDS011;619;51.472;6.628;2023-07-31T01:51:42;8.40;;;4.03;;
1258;SDS011;619;51.472;6.628;2023-07-31T01:54:08;7.17;;;4.40;;
1258;SDS011;619;51.472;6.628;2023-07-31T01:56:41;6.57;;;4.23;;
1258;SDS011;619;51.472;6.628;2023-07-31T01:59:06;8.20;;;4.80;;
1258;SDS011;619;51.472;6.628;2023-07-31T02:01:32;9.80;;;4.47;;
1258;SDS011;619;51.472;6.628;2023-07-31T02:03:59;8.70;;;4.43;;
1258;SDS011;619;51.472;6.628;2023-07-31T02:06:29;15.30;;;6.17;;
1258;SDS011;619;51.472;6.628;2023-07-31T02:08:57;10.50;;;5.63;;
1258;SDS011;619;51.472;6.628;2023-07-31T02:11:26;9.30;;;4.90;;
1258;SDS011;619;51.472;6.628;2023-07-31T02:13:54;10.60;;;4.50;;
1258;SDS011;619;51.472;6.628;2023-07-31T02:16:19;6.70;;;4.90;;
1258;SDS011;619;51.472;6.628;2023-07-31T02:18:45;9.10;;;4.53;;
1258;SDS011;619;51.472;6.628;2023-07-31T02:21:11;6.87;;;4.03;;
1258;SDS011;619;51.472;6.628;2023-07-31T02:23:36;6.53;;;3.83;;
1258;SDS011;619;51.472;6.628;2023-07-31T02:26:02;11.40;;;5.17;;
1258;SDS011;619;51.472;6.628;2023-07-31T02:28:28;6.37;;;4.00;;
1258;SDS011;619;51.472;6.628;2023-07-31T02:30:59;12.40;;;5.30;;
1258;SDS011;619;51.472;6.628;2023-07-31T02:33:24;11.87;;;5.50;;
1258;SDS011;619;51.472;6.628;2023-07-31T02:35:50;10.50;;;4.80;;
1258;SDS011;619;51.472;6.628;2023-07-31T02:38:19;8.90;;;4.47;;
1258;SDS011;619;51.472;6.628;2023-07-31T02:40:49;8.43;;;4.10;;
1258;SDS011;619;51.472;6.628;2023-07-31T02:43:17;4.77;;;4.00;;
1258;SDS011;619;51.472;6.628;2023-07-31T02:45:45;10.57;;;4.53;;
1258;SDS011;619;51.472;6.628;2023-07-31T02:48:18;13.33;;;4.90;;
1258;SDS011;619;51.472;6.628;2023-07-31T02:50:47;8.73;;;5.40;;
1258;SDS011;619;51.472;6.628;2023-07-31T02:53:15;11.20;;;4.37;;
1258;SDS011;619;51.472;6.628;2023-07-31T02:55:41;10.47;;;5.47;;
1258;SDS011;619;51.472;6.628;2023-07-31T02:58:06;9.70;;;4.80;;
1258;SDS011;619;51.472;6.628;2023-07-31T03:00:32;9.50;;;5.13;;
1258;SDS011;619;51.472;6.628;2023-07-31T03:02:57;9.63;;;4.43;;
1258;SDS011;619;51.472;6.628;2023-07-31T03:05:25;7.63;;;4.47;;
1258;SDS011;619;51.472;6.628;2023-07-31T03:07:51;8.47;;;5.70;;
1258;SDS011;619;51.472;6.628;2023-07-31T03:10:16;10.20;;;4.43;;
1258;SDS011;619;51.472;6.628;2023-07-31T03:12:42;9.40;;;4.27;;
1258;SDS011;619;51.472;6.628;2023-07-31T03:15:11;15.40;;;5.03;;
1258;SDS011;619;51.472;6.628;2023-07-31T03:17:39;7.37;;;4.30;;
1258;SDS011;619;51.472;6.628;2023-07-31T03:20:04;12.20;;;5.30;;
1258;SDS011;619;51.472;6.628;2023-07-31T03:22:33;12.97;;;5.17;;
1258;SDS011;619;51.472;6.628;2023-07-31T03:25:00;10.53;;;5.00;;
1258;SDS011;619;51.472;6.628;2023-07-31T03:27:29;9.87;;;4.47;;
1258;SDS011;619;51.472;6.628;2023-07-31T03:29:54;9.77;;;4.70;;
1258;SDS011;619;51.472;6.628;2023-07-31T03:32:20;9.97;;;4.80;;
1258;SDS011;619;51.472;6.628;2023-07-31T03:34:45;12.23;;;5.87;;
1258;SDS011;619;51.472;6.628;2023-07-31T03:37:11;11.47;;;5.20;;
1258;SDS011;619;51.472;6.628;2023-07-31T03:39:39;10.30;;;4.90;;
1258;SDS011;619;51.472;6.628;2023-07-31T03:42:05;10.17;;;5.10;;
1258;SDS011;619;51.472;6.628;2023-07-31T03:44:35;9.80;;;4.50;;
1258;SDS011;619;51.472;6.628;2023-07-31T03:47:05;10.50;;;5.40;;
1258;SDS011;619;51.472;6.628;2023-07-31T03:49:35;9.90;;;4.27;;
1258;SDS011;619;51.472;6.628;2023-07-31T03:52:03;7.20;;;5.13;;
1258;SDS011;619;51.472;6.628;2023-07-31T03:54:31;9.37;;;3.90;;
1258;SDS011;619;51.472;6.628;2023-07-31T03:56:57;7.57;;;4.63;;
1258;SDS011;619;51.472;6.628;2023-07-31T03:59:22;9.43;;;4.03;;
1258;SDS011;619;51.472;6.628;2023-07-31T04:01:50;14.60;;;4.77;;
1258;SDS011;619;51.472;6.628;2023-07-31T04:04:18;8.07;;;4.50;;
1258;SDS011;619;51.472;6.628;2023-07-31T04:06:46;9.80;;;4.27;;
1258;SDS011;619;51.472;6.628;2023-07-31T04:09:16;12.83;;;5.17;;
1258;SDS011;619;51.472;6.628;2023-07-31T04:11:42;5.70;;;4.77;;
1258;SDS011;619;51.472;6.628;2023-07-31T04:14:07;5.93;;;4.03;;
1258;SDS011;619;51.472;6.628;2023-07-31T04:16:33;6.27;;;4.17;;
1258;SDS011;619;51.472;6.628;2023-07-31T04:18:59;7.67;;;4.00;;
1258;SDS011;619;51.472;6.628;2023-07-31T04:21:24;8.07;;;4.50;;
1258;SDS011;619;51.472;6.628;2023-07-31T04:23:50;11.00;;;5.93;;
1258;SDS011;619;51.472;6.628;2023-07-31T04:26:20;7.23;;;5.00;;
1258;SDS011;619;51.472;6.628;2023-07-31T04:28:50;9.43;;;4.47;;
1258;SDS011;619;51.472;6.628;2023-07-31T04:31:16;9.53;;;5.00;;
1258;SDS011;619;51.472;6.628;2023-07-31T04:33:46;9.90;;;4.40;;
1258;SDS011;619;51.472;6.628;2023-07-31T04:36:12;7.27;;;4.63;;
1258;SDS011;619;51.472;6.628;2023-07-31T04:38:39;7.90;;;4.97;;
1258;SDS011;619;51.472;6.628;2023-07-31T04:41:08;9.10;;;4.87;;
1258;SDS011;619;51.472;6.628;2023-07-31T04:43:34;7.97;;;4.00;;
1258;SDS011;619;51.472;6.628;2023-07-31T04:45:59;6.60;;;4.60;;
1258;SDS011;619;51.472;6.628;2023-07-31T04:48:25;9.83;;;4.80;;
1258;SDS011;619;51.472;6.628;2023-07-31T04:50:50;6.20;;;4.13;;
1258;SDS011;619;51.472;6.628;2023-07-31T04:53:16;10.10;;;5.10;;
1258;SDS011;619;51.472;6.628;2023-07-31T04:55:41;8.67;;;4.70;;
1258;SDS011;619;51.472;6.628;2023-07-31T04:58:07;6.40;;;4.20;;
1258;SDS011;619;51.472;6.628;2023-07-31T05:00:33;8.57;;;5.50;;
1258;SDS011;619;51.472;6.628;2023-07-31T05:03:00;10.37;;;5.20;;
1258;SDS011;619;51.472;6.628;2023-07-31T05:05:26;8.77;;;4.50;;
1258;SDS011;619;51.472;6.628;2023-07-31T05:07:52;7.40;;;4.67;;
1258;SDS011;619;51.472;6.628;2023-07-31T05:10:17;10.50;;;5.20;;
1258;SDS011;619;51.472;6.628;2023-07-31T05:12:43;7.90;;;4.43;;
1258;SDS011;619;51.472;6.628;2023-07-31T05:15:11;9.87;;;4.60;;
1258;SDS011;619;51.472;6.628;2023-07-31T05:17:36;10.20;;;5.30;;
1258;SDS011;619;51.472;6.628;2023-07-31T05:20:05;9.13;;;4.63;;
1258;SDS011;619;51.472;6.628;2023-07-31T05:22:31;9.93;;;4.10;;
1258;SDS011;619;51.472;6.628;2023-07-31T05:24:56;7.83;;;4.30;;
1258;SDS011;619;51.472;6.628;2023-07-31T05:27:22;7.70;;;4.63;;
1258;SDS011;619;51.472;6.628;2023-07-31T05:29:48;9.40;;;5.40;;
1258;SDS011;619;51.472;6.628;2023-07-31T05:32:13;11.53;;;5.50;;
1258;SDS011;619;51.472;6.628;2023-07-31T05:34:41;9.67;;;4.70;;
1258;SDS011;619;51.472;6.628;2023-07-31T05:37:10;10.47;;;5.40;;
1258;SDS011;619;51.472;6.628;2023-07-31T05:39:37;5.57;;;4.90;;
1258;SDS011;619;51.472;6.628;2023-07-31T05:42:08;7.83;;;5.40;;
1258;SDS011;619;51.472;6.628;2023-07-31T05:44:33;7.77;;;4.40;;
1258;SDS011;619;51.472;6.628;2023-07-31T05:46:59;8.13;;;5.60;;
1258;SDS011;619;51.472;6.628;2023-07-31T05:49:27;7.17;;;4.80;;
1258;SDS011;619;51.472;6.628;2023-07-31T05:51:55;9.60;;;5.13;;
1258;SDS011;619;51.472;6.628;2023-07-31T05:54:23;7.27;;;5.50;;
1258;SDS011;619;51.472;6.628;2023-07-31T05:56:51;9.30;;;5.20;;
1258;SDS011;619;51.472;6.628;2023-07-31T05:59:17;9.53;;;5.10;;
1258;SDS011;619;51.472;6.628;2023-07-31T06:01:42;8.33;;;4.93;;
1258;SDS011;619;51.472;6.628;2023-07-31T06:04:08;10.67;;;4.70;;
1258;SDS011;619;51.472;6.628;2023-07-31T06:06:36;9.17;;;5.70;;
1258;SDS011;619;51.472;6.628;2023-07-31T06:09:02;13.33;;;5.17;;
1258;SDS011;619;51.472;6.628;2023-07-31T06:11:28;8.00;;;5.10;;
1258;SDS011;619;51.472;6.628;2023-07-31T06:13:54;10.67;;;5.57;;
1258;SDS011;619;51.472;6.628;2023-07-31T06:16:19;8.00;;;5.73;;
1258;SDS011;619;51.472;6.628;2023-07-31T06:18:47;5.60;;;4.97;;
1258;SDS011;619;51.472;6.628;2023-07-31T06:21:16;8.17;;;4.83;;
1258;SDS011;619;51.472;6.628;2023-07-31T06:23:41;7.40;;;5.00;;
1258;SDS011;619;51.472;6.628;2023-07-31T06:26:07;9.37;;;5.30;;
1258;SDS011;619;51.472;6.628;2023-07-31T06:28:35;9.97;;;5.40;;
1258;SDS011;619;51.472;6.628;2023-07-31T06:31:01;8.10;;;4.33;;
1258;SDS011;619;51.472;6.628;2023-07-31T06:33:27;5.17;;;4.67;;
1258;SDS011;619;51.472;6.628;2023-07-31T06:35:53;6.97;;;4.40;;
1258;SDS011;619;51.472;6.628;2023-07-31T06:38:21;7.23;;;5.20;;
1258;SDS011;619;51.472;6.628;2023-07-31T06:40:50;5.13;;;4.30;;
1258;SDS011;619;51.472;6.628;2023-07-31T06:43:15;6.40;;;4.73;;
1258;SDS011;619;51.472;6.628;2023-07-31T06:45:41;6.43;;;4.53;;
1258;SDS011;619;51.472;6.628;2023-07-31T06:48:07;6.87;;;4.47;;
1258;SDS011;619;51.472;6.628;2023-07-31T06:50:36;7.93;;;4.17;;
1258;SDS011;619;51.472;6.628;2023-07-31T06:53:02;9.20;;;4.93;;
1258;SDS011;619;51.472;6.628;2023-07-31T06:55:30;6.10;;;5.13;;
1258;SDS011;619;51.472;6.628;2023-07-31T06:57:58;9.80;;;4.63;;
1258;SDS011;619;51.472;6.628;2023-07-31T07:00:23;5.87;;;4.37;;
1258;SDS011;619;51.472;6.628;2023-07-31T07:02:49;7.67;;;4.17;;
1258;SDS011;619;51.472;6.628;2023-07-31T07:05:18;5.60;;;4.43;;
1258;SDS011;619;51.472;6.628;2023-07-31T07:07:46;4.80;;;4.40;;
1258;SDS011;619;51.472;6.628;2023-07-31T07:10:13;5.60;;;3.80;;
1258;SDS011;619;51.472;6.628;2023-07-31T07:12:41;5.10;;;4.50;;
1258;SDS011;619;51.472;6.628;2023-07-31T07:15:07;7.17;;;4.90;;
1258;SDS011;619;51.472;6.628;2023-07-31T07:17:35;8.60;;;4.27;;
1258;SDS011;619;51.472;6.628;2023-07-31T07:20:02;6.10;;;4.20;;
1258;SDS011;619;51.472;6.628;2023-07-31T07:22:28;6.00;;;3.90;;
1258;SDS011;619;51.472;6.628;2023-07-31T07:24:54;5.87;;;4.30;;
1258;SDS011;619;51.472;6.628;2023-07-31T07:27:22;5.50;;;4.37;;
1258;SDS011;619;51.472;6.628;2023-07-31T07:29:49;7.10;;;4.37;;
1258;SDS011;619;51.472;6.628;2023-07-31T07:32:15;6.63;;;4.20;;
1258;SDS011;619;51.472;6.628;2023-07-31T07:34:46;8.07;;;4.47;;
1258;SDS011;619;51.472;6.628;2023-07-31T07:37:13;7.13;;;4.37;;
1258;SDS011;619;51.472;6.628;2023-07-31T07:39:41;8.83;;;4.07;;
1258;SDS011;619;51.472;6.628;2023-07-31T07:42:09;4.47;;;4.03;;
1258;SDS011;619;51.472;6.628;2023-07-31T07:44:35;7.00;;;3.90;;
1258;SDS011;619;51.472;6.628;2023-07-31T07:47:03;8.33;;;2.97;;
1258;SDS011;619;51.472;6.628;2023-07-31T07:49:30;5.00;;;3.40;;
1258;SDS011;619;51.472;6.628;2023-07-31T07:51:56;4.70;;;3.20;;
1258;SDS011;619;51.472;6.628;2023-07-31T07:54:22;3.73;;;3.10;;
1258;SDS011;619;51.472;6.628;2023-07-31T07:56:52;7.03;;;2.90;;
1258;SDS011;619;51.472;6.628;2023-07-31T07:59:17;4.47;;;3.00;;
1258;SDS011;619;51.472;6.628;2023-07-31T08:01:43;3.70;;;2.70;;
1258;SDS011;619;51.472;6.628;2023-07-31T08:04:10;4.80;;;3.40;;
1258;SDS011;619;51.472;6.628;2023-07-31T08:06:36;4.43;;;3.37;;
1258;SDS011;619;51.472;6.628;2023-07-31T08:09:02;5.00;;;2.73;;
1258;SDS011;619;51.472;6.628;2023-07-31T08:11:33;6.23;;;3.07;;
1258;SDS011;619;51.472;6.628;2023-07-31T08:14:04;3.13;;;2.00;;
1258;SDS011;619;51.472;6.628;2023-07-31T08:16:29;4.97;;;2.70;;
1258;SDS011;619;51.472;6.628;2023-07-31T08:18:57;3.20;;;2.83;;
1258;SDS011;619;51.472;6.628;2023-07-31T08:21:27;3.80;;;2.60;;
1258;SDS011;619;51.472;6.628;2023-07-31T08:23:53;3.10;;;2.80;;
1258;SDS011;619;51.472;6.628;2023-07-31T08:26:19;3.67;;;2.50;;
1258;SDS011;619;51.472;6.628;2023-07-31T08:28:44;5.67;;;3.03;;
1258;SDS011;619;51.472;6.628;2023-07-31T08:31:10;2.93;;;2.40;;
1258;SDS011;619;51.472;6.628;2023-07-31T08:33:38;5.00;;;2.93;;
1258;SDS011;619;51.472;6.628;2023-07-31T08:36:05;3.13;;;2.30;;
1258;SDS011;619;51.472;6.628;2023-07-31T08:38:33;3.30;;;2.67;;
1258;SDS011;619;51.472;6.628;2023-07-31T08:40:58;3.20;;;2.90;;
1258;SDS011;619;51.472;6.628;2023-07-31T08:43:27;3.10;;;2.70;;
1258;SDS011;619;51.472;6.628;2023-07-31T08:45:52;7.73;;;3.20;;
1258;SDS011;619;51.472;6.628;2023-07-31T08:48:21;4.07;;;2.67;;
1258;SDS011;619;51.472;6.628;2023-07-31T08:50:50;3.40;;;2.73;;
1258;SDS011;619;51.472;6.628;2023-07-31T08:53:19;6.63;;;2.93;;
1258;SDS011;619;51.472;6.628;2023-07-31T08:55:45;4.33;;;3.00;;
1258;SDS011;619;51.472;6.628;2023-07-31T08:58:12;4.70;;;2.90;;
1258;SDS011;619;51.472;6.628;2023-07-31T09:00:38;4.17;;;2.93;;
1258;SDS011;619;51.472;6.628;2023-07-31T09:03:09;4.17;;;2.90;;
1258;SDS011;619;51.472;6.628;2023-07-31T09:05:38;4.20;;;3.40;;
1258;SDS011;619;51.472;6.628;2023-07-31T09:08:08;4.37;;;3.00;;
1258;SDS011;619;51.472;6.628;2023-07-31T09:10:40;5.33;;;3.40;;
1258;SDS011;619;51.472;6.628;2023-07-31T09:13:09;5.83;;;3.33;;
1258;SDS011;619;51.472;6.628;2023-07-31T09:15:36;3.83;;;3.07;;
1258;SDS011;619;51.472;6.628;2023-07-31T09:18:03;5.50;;;3.37;;
1258;SDS011;619;51.472;6.628;2023-07-31T09:20:30;6.00;;;3.60;;
1258;SDS011;619;51.472;6.628;2023-07-31T09:23:09;4.20;;;2.50;;
1258;SDS011;619;51.472;6.628;2023-07-31T09:25:36;6.00;;;3.40;;
1258;SDS011;619;51.472;6.628;2023-07-31T09:28:07;4.47;;;3.03;;
1258;SDS011;619;51.472;6.628;2023-07-31T09:30:44;5.30;;;2.90;;
1258;SDS011;619;51.472;6.628;2023-07-31T09:33:17;3.10;;;2.67;;
1258;SDS011;619;51.472;6.628;2023-07-31T09:35:45;4.93;;;2.90;;
1258;SDS011;619;51.472;6.628;2023-07-31T09:38:13;3.80;;;2.70;;
1258;SDS011;619;51.472;6.628;2023-07-31T09:40:43;3.40;;;3.03;;
1258;SDS011;619;51.472;6.628;2023-07-31T09:43:10;4.10;;;3.00;;
1258;SDS011;619;51.472;6.628;2023-07-31T09:45:41;3.40;;;2.63;;
1258;SDS011;619;51.472;6.628;2023-07-31T09:48:11;4.00;;;3.10;;
1258;SDS011;619;51.472;6.628;2023-07-31T09:50:41;3.60;;;2.73;;
1258;SDS011;619;51.472;6.628;2023-07-31T09:53:08;4.40;;;2.30;;
1258;SDS011;619;51.472;6.628;2023-07-31T09:55:34;3.27;;;2.50;;
1258;SDS011;619;51.472;6.628;2023-07-31T09:58:06;4.27;;;3.53;;
1258;SDS011;619;51.472;6.628;2023-07-31T10:00:36;4.27;;;2.80;;
1258;SDS011;619;51.472;6.628;2023-07-31T10:03:04;3.70;;;3.00;;
1258;SDS011;619;51.472;6.628;2023-07-31T10:05:35;4.53;;;2.50;;
1258;SDS011;619;51.472;6.628;2023-07-31T10:08:09;4.37;;;2.97;;
1258;SDS011;619;51.472;6.628;2023-07-31T10:10:40;4.27;;;2.67;;
1258;SDS011;619;51.472;6.628;2023-07-31T10:13:07;5.57;;;3.27;;
1258;SDS011;619;51.472;6.628;2023-07-31T10:15:34;3.90;;;3.50;;
1258;SDS011;619;51.472;6.628;2023-07-31T10:18:03;6.30;;;3.60;;
1258;SDS011;619;51.472;6.628;2023-07-31T10:20:33;6.77;;;2.53;;
1258;SDS011;619;51.472;6.628;2023-07-31T10:23:00;4.33;;;3.00;;
1258;SDS011;619;51.472;6.628;2023-07-31T10:25:27;5.27;;;2.93;;
1258;SDS011;619;51.472;6.628;2023-07-31T10:27:54;5.20;;;3.10;;
1258;SDS011;619;51.472;6.628;2023-07-31T10:30:22;3.07;;;2.77;;
1258;SDS011;619;51.472;6.628;2023-07-31T10:32:54;6.37;;;3.43;;
1258;SDS011;619;51.472;6.628;2023-07-31T10:35:23;4.03;;;3.63;;
1258;SDS011;619;51.472;6.628;2023-07-31T10:37:49;3.73;;;3.30;;
1258;SDS011;619;51.472;6.628;2023-07-31T10:42:55;5.40;;;4.37;;
1258;SDS011;619;51.472;6.628;2023-07-31T10:45:33;4.50;;;3.40;;
1258;SDS011;619;51.472;6.628;2023-07-31T10:48:03;5.00;;;3.77;;
1258;SDS011;619;51.472;6.628;2023-07-31T10:50:36;5.10;;;3.40;;
1258;SDS011;619;51.472;6.628;2023-07-31T10:53:03;5.20;;;3.20;;
1258;SDS011;619;51.472;6.628;2023-07-31T10:55:33;3.60;;;3.20;;
1258;SDS011;619;51.472;6.628;2023-07-31T11:00:33;5.90;;;3.67;;
1258;SDS011;619;51.472;6.628;2023-07-31T11:03:05;4.93;;;3.50;;
1258;SDS011;619;51.472;6.628;2023-07-31T11:06:19;2.77;;;2.10;;
1258;SDS011;619;51.472;6.628;2023-07-31T11:08:29;5.60;;;2.83;;
1258;SDS011;619;51.472;6.628;2023-07-31T11:13:29;3.87;;;3.10;;
1258;SDS011;619;51.472;6.628;2023-07-31T11:15:59;5.63;;;3.03;;
1258;SDS011;619;51.472;6.628;2023-07-31T11:18:27;4.70;;;3.17;;
1258;SDS011;619;51.472;6.628;2023-07-31T11:20:53;4.33;;;3.27;;
1258;SDS011;619;51.472;6.628;2023-07-31T11:23:19;6.50;;;3.30;;
1258;SDS011;619;51.472;6.628;2023-07-31T11:25:51;3.93;;;2.33;;
1258;SDS011;619;51.472;6.628;2023-07-31T11:28:21;2.73;;;2.40;;
1258;SDS011;619;51.472;6.628;2023-07-31T11:30:46;3.93;;;3.13;;
1258;SDS011;619;51.472;6.628;2023-07-31T11:33:17;4.20;;;2.97;;
1258;SDS011;619;51.472;6.628;2023-07-31T11:35:46;4.47;;;3.00;;
1258;SDS011;619;51.472;6.628;2023-07-31T11:40:56;3.23;;;2.73;;
1258;SDS011;619;51.472;6.628;2023-07-31T11:43:24;3.60;;;2.83;;
1258;SDS011;619;51.472;6.628;2023-07-31T11:45:51;4.20;;;3.47;;
1258;SDS011;619;51.472;6.628;2023-07-31T11:48:25;3.07;;;2.77;;
1258;SDS011;619;51.472;6.628;2023-07-31T11:50:54;3.03;;;2.73;;
1258;SDS011;619;51.472;6.628;2023-07-31T11:53:26;3.00;;;2.60;;
1258;SDS011;619;51.472;6.628;2023-07-31T11:55:58;3.57;;;3.00;;
1258;SDS011;619;51.472;6.628;2023-07-31T11:58:24;3.90;;;3.07;;
1258;SDS011;619;51.472;6.628;2023-07-31T12:00:53;4.57;;;3.37;;
1258;SDS011;619;51.472;6.628;2023-07-31T12:03:20;5.70;;;2.73;;
1258;SDS011;619;51.472;6.628;2023-07-31T12:05:47;6.13;;;3.20;;
1258;SDS011;619;51.472;6.628;2023-07-31T12:08:15;6.60;;;6.00;;
1258;SDS011;619;51.472;6.628;2023-07-31T12:10:41;3.20;;;2.47;;
1258;SDS011;619;51.472;6.628;2023-07-31T12:13:20;4.73;;;3.33;;
1258;SDS011;619;51.472;6.628;2023-07-31T12:15:55;3.03;;;2.77;;
1258;SDS011;619;51.472;6.628;2023-07-31T12:18:24;7.13;;;3.60;;
1258;SDS011;619;51.472;6.628;2023-07-31T12:20:54;4.30;;;3.10;;
1258;SDS011;619;51.472;6.628;2023-07-31T12:23:25;3.13;;;2.83;;
1258;SDS011;619;51.472;6.628;2023-07-31T12:28:58;4.03;;;3.10;;
1258;SDS011;619;51.472;6.628;2023-07-31T12:31:27;3.97;;;3.03;;
1258;SDS011;619;51.472;6.628;2023-07-31T12:33:58;6.87;;;2.77;;
1258;SDS011;619;51.472;6.628;2023-07-31T12:36:26;3.37;;;2.67;;
1258;SDS011;619;51.472;6.628;2023-07-31T12:38:54;4.20;;;3.27;;
1258;SDS011;619;51.472;6.628;2023-07-31T12:41:23;7.33;;;2.77;;
1258;SDS011;619;51.472;6.628;2023-07-31T12:43:49;3.87;;;2.80;;
1258;SDS011;619;51.472;6.628;2023-07-31T12:46:18;3.80;;;2.37;;
1258;SDS011;619;51.472;6.628;2023-07-31T12:48:43;4.40;;;2.17;;
1258;SDS011;619;51.472;6.628;2023-07-31T12:51:09;3.40;;;3.10;;
1258;SDS011;619;51.472;6.628;2023-07-31T12:53:39;3.23;;;2.63;;
1258;SDS011;619;51.472;6.628;2023-07-31T12:56:07;3.00;;;2.70;;
1258;SDS011;619;51.472;6.628;2023-07-31T12:58:33;3.50;;;2.93;;
1258;SDS011;619;51.472;6.628;2023-07-31T13:00:58;3.50;;;2.60;;
1258;SDS011;619;51.472;6.628;2023-07-31T13:03:24;3.90;;;2.60;;
1258;SDS011;619;51.472;6.628;2023-07-31T13:05:50;4.17;;;2.33;;
1258;SDS011;619;51.472;6.628;2023-07-31T13:08:18;3.57;;;3.17;;
1258;SDS011;619;51.472;6.628;2023-07-31T13:10:44;2.20;;;2.00;;
1258;SDS011;619;51.472;6.628;2023-07-31T13:13:12;5.40;;;3.43;;
1258;SDS011;619;51.472;6.628;2023-07-31T13:15:37;5.10;;;4.40;;
1258;SDS011;619;51.472;6.628;2023-07-31T13:18:03;5.27;;;4.77;;
1258;SDS011;619;51.472;6.628;2023-07-31T13:20:29;4.37;;;3.20;;
1258;SDS011;619;51.472;6.628;2023-07-31T13:22:57;4.67;;;2.90;;
1258;SDS011;619;51.472;6.628;2023-07-31T13:25:22;7.17;;;3.30;;
1258;SDS011;619;51.472;6.628;2023-07-31T13:27:48;5.20;;;3.20;;
1258;SDS011;619;51.472;6.628;2023-07-31T13:30:18;4.47;;;3.10;;
1258;SDS011;619;51.472;6.628;2023-07-31T13:32:44;8.37;;;3.63;;
1258;SDS011;619;51.472;6.628;2023-07-31T13:35:09;5.10;;;3.73;;
1258;SDS011;619;51.472;6.628;2023-07-31T13:37:39;3.20;;;2.90;;
1258;SDS011;619;51.472;6.628;2023-07-31T13:40:05;4.30;;;3.50;;
1258;SDS011;619;51.472;6.628;2023-07-31T13:42:31;8.03;;;3.50;;
1258;SDS011;619;51.472;6.628;2023-07-31T13:44:57;3.90;;;3.40;;
1258;SDS011;619;51.472;6.628;2023-07-31T13:47:25;4.10;;;2.90;;
1258;SDS011;619;51.472;6.628;2023-07-31T13:49:51;7.13;;;3.43;;
1258;SDS011;619;51.472;6.628;2023-07-31T13:52:16;4.63;;;4.07;;
1258;SDS011;619;51.472;6.628;2023-07-31T13:54:43;3.63;;;3.30;;
1258;SDS011;619;51.472;6.628;2023-07-31T13:57:08;5.20;;;3.30;;
1258;SDS011;619;51.472;6.628;2023-07-31T13:59:34;4.70;;;3.90;;
1258;SDS011;619;51.472;6.628;2023-07-31T14:01:59;5.57;;;3.83;;
1258;SDS011;619;51.472;6.628;2023-07-31T14:04:29;4.10;;;3.50;;
1258;SDS011;619;51.472;6.628;2023-07-31T14:06:55;4.17;;;3.77;;
1258;SDS011;619;51.472;6.628;2023-07-31T14:09:21;12.20;;;9.20;;
1258;SDS011;619;51.472;6.628;2023-07-31T14:11:47;5.00;;;4.50;;
1258;SDS011;619;51.472;6.628;2023-07-31T14:14:12;7.10;;;4.10;;
1258;SDS011;619;51.472;6.628;2023-07-31T14:16:42;6.30;;;3.50;;
1258;SDS011;619;51.472;6.628;2023-07-31T14:19:10;5.87;;;4.30;;
1258;SDS011;619;51.472;6.628;2023-07-31T14:21:36;7.10;;;4.67;;
1258;SDS011;619;51.472;6.628;2023-07-31T14:24:04;5.10;;;4.50;;
1258;SDS011;619;51.472;6.628;2023-07-31T14:26:29;3.97;;;3.67;;
1258;SDS011;619;51.472;6.628;2023-07-31T14:28:57;4.50;;;4.10;;
1258;SDS011;619;51.472;6.628;2023-07-31T14:31:23;8.20;;;4.13;;
1258;SDS011;619;51.472;6.628;2023-07-31T14:33:49;6.70;;;5.30;;
1258;SDS011;619;51.472;6.628;2023-07-31T14:36:19;4.87;;;4.13;;
1258;SDS011;619;51.472;6.628;2023-07-31T14:38:44;6.00;;;3.70;;
1258;SDS011;619;51.472;6.628;2023-07-31T14:41:10;6.03;;;4.47;;
1258;SDS011;619;51.472;6.628;2023-07-31T14:43:36;5.47;;;3.87;;
1258;SDS011;619;51.472;6.628;2023-07-31T14:46:01;5.13;;;4.60;;
1258;SDS011;619;51.472;6.628;2023-07-31T14:48:29;4.87;;;4.10;;
1258;SDS011;619;51.472;6.628;2023-07-31T14:51:00;5.30;;;4.50;;
1258;SDS011;619;51.472;6.628;2023-07-31T14:53:28;4.60;;;3.80;;
1258;SDS011;619;51.472;6.628;2023-07-31T14:55:56;5.30;;;4.20;;
1258;SDS011;619;51.472;6.628;2023-07-31T14:58:24;6.73;;;4.80;;
1258;SDS011;619;51.472;6.628;2023-07-31T15:00:52;8.60;;;4.60;;
1258;SDS011;619;51.472;6.628;2023-07-31T15:03:22;5.80;;;4.30;;
1258;SDS011;619;51.472;6.628;2023-07-31T15:05:50;8.20;;;4.80;;
1258;SDS011;619;51.472;6.628;2023-07-31T15:08:15;9.60;;;7.53;;
1258;SDS011;619;51.472;6.628;2023-07-31T15:10:41;5.57;;;4.67;;
1258;SDS011;619;51.472;6.628;2023-07-31T15:13:06;5.30;;;4.33;;
1258;SDS011;619;51.472;6.628;2023-07-31T15:15:32;8.03;;;4.20;;
1258;SDS011;619;51.472;6.628;2023-07-31T15:17:58;5.00;;;4.23;;
1258;SDS011;619;51.472;6.628;2023-07-31T15:20:23;5.50;;;4.00;;
1258;SDS011;619;51.472;6.628;2023-07-31T15:22:49;6.30;;;4.37;;
1258;SDS011;619;51.472;6.628;2023-07-31T15:25:17;9.93;;;4.80;;
1258;SDS011;619;51.472;6.628;2023-07-31T15:27:43;8.70;;;4.53;;
1258;SDS011;619;51.472;6.628;2023-07-31T15:30:11;6.07;;;4.97;;
1258;SDS011;619;51.472;6.628;2023-07-31T15:32:37;6.67;;;5.97;;
1258;SDS011;619;51.472;6.628;2023-07-31T15:35:03;5.50;;;4.30;;
1258;SDS011;619;51.472;6.628;2023-07-31T15:37:32;4.53;;;3.90;;
1258;SDS011;619;51.472;6.628;2023-07-31T15:39:58;4.50;;;4.10;;
1258;SDS011;619;51.472;6.628;2023-07-31T15:42:23;4.33;;;3.80;;
1258;SDS011;619;51.472;6.628;2023-07-31T15:44:49;4.90;;;4.40;;
1258;SDS011;619;51.472;6.628;2023-07-31T15:47:14;10.37;;;4.77;;